createdAt,value
2023-02-13T00:00:24.399Z,16.63
2023-02-13T00:03:11.782Z,17.07
2023-02-13T00:05:38.753Z,17.13
2023-02-13T00:08:06.241Z,18.47
2023-02-13T00:10:33.209Z,17.63
2023-02-13T00:13:00.477Z,17.70
2023-02-13T00:15:27.533Z,16.97
2023-02-13T00:17:54.869Z,17.30
2023-02-13T00:20:21.846Z,16.53
2023-02-13T00:22:49.078Z,18.77
2023-02-13T00:25:16.060Z,16.83
2023-02-13T00:27:43.491Z,18.07
2023-02-13T00:30:10.893Z,17.40
2023-02-13T00:32:38.105Z,16.80
2023-02-13T00:35:05.368Z,17.07
2023-02-13T00:37:34.108Z,16.27
2023-02-13T00:40:01.112Z,17.57
2023-02-13T00:42:28.446Z,16.70
2023-02-13T00:44:55.521Z,15.37
2023-02-13T00:47:22.824Z,17.33
2023-02-13T00:49:49.916Z,17.07
2023-02-13T00:52:17.109Z,16.93
2023-02-13T00:54:44.084Z,17.00
2023-02-13T00:57:11.304Z,14.50
2023-02-13T00:59:38.256Z,16.83
2023-02-13T01:02:05.495Z,14.80
2023-02-13T01:04:32.587Z,17.30
2023-02-13T01:06:59.811Z,15.10
2023-02-13T01:09:26.879Z,14.63
2023-02-13T01:11:54.329Z,14.80
2023-02-13T01:14:21.415Z,16.03
2023-02-13T01:16:48.667Z,15.90
2023-02-13T01:19:15.882Z,15.70
2023-02-13T01:21:43.696Z,18.17
2023-02-13T01:24:10.638Z,16.83
2023-02-13T01:26:37.886Z,16.40
2023-02-13T01:29:04.888Z,17.23
2023-02-13T01:31:32.216Z,15.63
2023-02-13T01:33:59.380Z,15.97
2023-02-13T01:36:27.173Z,17.30
2023-02-13T01:38:56.375Z,14.67
2023-02-13T01:41:24.723Z,16.67
2023-02-13T01:43:57.751Z,15.93
2023-02-13T01:46:51.269Z,17.23
2023-02-13T01:49:26.046Z,16.40
2023-02-13T01:51:56.106Z,16.87
2023-02-13T01:54:31.163Z,15.30
2023-02-13T01:57:09.513Z,16.87
2023-02-13T01:59:49.284Z,16.27
2023-02-13T02:02:17.358Z,17.17
2023-02-13T02:04:47.307Z,17.87
2023-02-13T02:07:19.872Z,15.63
2023-02-13T02:09:47.696Z,16.03
2023-02-13T02:12:29.558Z,15.63
2023-02-13T02:14:58.992Z,16.43
2023-02-13T02:17:27.504Z,17.60
2023-02-13T02:20:12.601Z,17.77
2023-02-13T02:22:48.498Z,15.73
2023-02-13T02:25:36.504Z,15.40
2023-02-13T02:28:41.190Z,16.73
2023-02-13T02:31:12.568Z,15.50
2023-02-13T02:33:42.785Z,14.07
2023-02-13T02:36:12.660Z,13.47
2023-02-13T02:39:13.993Z,14.60
2023-02-13T02:41:59.969Z,15.57
2023-02-13T02:45:02.334Z,14.60
2023-02-13T02:47:58.358Z,14.57
2023-02-13T02:50:25.481Z,15.33
2023-02-13T02:53:04.865Z,15.53
2023-02-13T02:55:55.634Z,15.00
2023-02-13T02:58:44.122Z,13.03
2023-02-13T03:01:34.849Z,13.30
2023-02-13T03:04:22.120Z,13.60
2023-02-13T03:06:54.827Z,13.70
2023-02-13T03:09:47.684Z,13.67
2023-02-13T03:12:39.044Z,13.03
2023-02-13T03:15:06.352Z,11.50
2023-02-13T03:17:52.646Z,12.13
2023-02-13T03:20:56.811Z,12.07
2023-02-13T03:24:00.176Z,13.17
2023-02-13T03:26:45.570Z,11.53
2023-02-13T03:30:04.333Z,13.20
2023-02-13T03:32:41.845Z,11.07
2023-02-13T03:35:33.654Z,12.13
2023-02-13T03:38:28.179Z,14.30
2023-02-13T03:41:21.345Z,12.03
2023-02-13T03:44:07.159Z,12.00
2023-02-13T03:46:39.440Z,12.47
2023-02-13T03:49:29.577Z,11.60
2023-02-13T03:52:02.437Z,12.87
2023-02-13T03:55:04.649Z,11.70
2023-02-13T03:57:52.535Z,12.37
2023-02-13T04:00:21.366Z,11.43
2023-02-13T04:03:08.350Z,12.63
2023-02-13T04:05:41.423Z,12.50
2023-02-13T04:08:08.703Z,12.27
2023-02-13T04:10:42.563Z,12.43
2023-02-13T04:13:33.037Z,13.37
2023-02-13T04:16:16.010Z,14.13
2023-02-13T04:18:44.098Z,12.00
2023-02-13T04:21:11.059Z,13.40
2023-02-13T04:23:38.278Z,13.93
2023-02-13T04:26:09.454Z,13.93
2023-02-13T04:28:36.748Z,12.03
2023-02-13T04:31:03.793Z,13.73
2023-02-13T04:33:31.048Z,12.17
2023-02-13T04:35:58.017Z,13.87
2023-02-13T04:38:25.255Z,14.87
2023-02-13T04:40:52.255Z,15.63
2023-02-13T04:43:19.548Z,15.13
2023-02-13T04:45:50.194Z,15.67
2023-02-13T04:48:17.782Z,16.53
2023-02-13T04:50:44.838Z,15.83
2023-02-13T04:53:12.143Z,16.57
2023-02-13T04:55:39.068Z,15.87
2023-02-13T04:58:06.245Z,15.60
2023-02-13T05:00:33.285Z,15.10
2023-02-13T05:03:06.273Z,18.73
2023-02-13T05:05:33.676Z,16.17
2023-02-13T05:08:01.032Z,15.20
2023-02-13T05:10:28.411Z,16.50
2023-02-13T05:12:55.748Z,15.40
2023-02-13T05:15:23.601Z,15.83
2023-02-13T05:17:51.124Z,16.93
2023-02-13T05:20:22.063Z,16.80
2023-02-13T05:23:12.900Z,16.70
2023-02-13T05:25:41.579Z,15.90
2023-02-13T05:28:28.082Z,18.10
2023-02-13T05:30:55.278Z,15.17
2023-02-13T05:33:22.708Z,16.87
2023-02-13T05:35:49.947Z,15.57
2023-02-13T05:38:17.238Z,15.47
2023-02-13T05:40:44.213Z,17.40
2023-02-13T05:43:11.462Z,15.93
2023-02-13T05:45:38.708Z,16.47
2023-02-13T05:48:06.104Z,14.33
2023-02-13T05:50:33.028Z,17.43
2023-02-13T05:53:00.248Z,15.07
2023-02-13T05:55:27.160Z,16.47
2023-02-13T05:57:58.295Z,17.47
2023-02-13T06:00:26.141Z,20.57
2023-02-13T06:02:53.394Z,17.20
2023-02-13T06:05:20.411Z,17.40
2023-02-13T06:07:47.614Z,17.57
2023-02-13T06:10:14.575Z,17.50
2023-02-13T06:12:43.271Z,16.80
2023-02-13T06:15:10.288Z,17.10
2023-02-13T06:17:37.727Z,17.50
2023-02-13T06:20:05.953Z,17.97
2023-02-13T06:22:33.194Z,16.57
2023-02-13T06:25:00.180Z,17.90
2023-02-13T06:27:27.454Z,16.53
2023-02-13T06:29:54.379Z,19.23
2023-02-13T06:32:21.600Z,18.10
2023-02-13T06:34:48.536Z,16.73
2023-02-13T06:37:15.849Z,17.50
2023-02-13T06:39:42.895Z,16.37
2023-02-13T06:42:10.179Z,16.20
2023-02-13T06:44:37.134Z,15.27
2023-02-13T06:47:04.372Z,17.03
2023-02-13T06:49:31.364Z,18.07
2023-02-13T06:51:58.625Z,17.60
2023-02-13T06:54:41.028Z,18.30
2023-02-13T06:57:13.039Z,19.73
2023-02-13T06:59:40.207Z,17.17
2023-02-13T07:02:08.909Z,17.50
2023-02-13T07:04:35.899Z,18.63
2023-02-13T07:07:03.166Z,18.10
2023-02-13T07:09:32.378Z,15.73
2023-02-13T07:12:03.370Z,13.80
2023-02-13T07:14:30.515Z,14.30
2023-02-13T07:16:58.146Z,14.90
2023-02-13T07:19:25.213Z,13.70
2023-02-13T07:21:52.588Z,13.20
2023-02-13T07:24:19.658Z,13.60
2023-02-13T07:26:46.942Z,12.87
2023-02-13T07:29:13.990Z,13.13
2023-02-13T07:31:41.369Z,13.27
2023-02-13T07:34:08.487Z,12.53
2023-02-13T07:36:35.725Z,14.03
2023-02-13T07:39:02.679Z,12.57
2023-02-13T07:41:30.030Z,11.17
2023-02-13T07:43:57.040Z,13.03
2023-02-13T07:46:24.338Z,10.80
2023-02-13T07:48:54.571Z,11.93
2023-02-13T07:51:25.270Z,14.07
2023-02-13T07:53:56.526Z,17.00
2023-02-13T07:56:23.860Z,13.70
2023-02-13T07:58:50.896Z,13.17
2023-02-13T08:01:19.936Z,8.50
2023-02-13T08:03:51.435Z,11.00
2023-02-13T08:06:20.248Z,10.57
2023-02-13T08:08:47.735Z,10.43
2023-02-13T08:11:45.500Z,10.00
2023-02-13T08:14:12.412Z,10.50
2023-02-13T08:16:39.703Z,11.53
2023-02-13T08:19:06.687Z,12.17
2023-02-13T08:21:35.279Z,10.07
2023-02-13T08:24:02.285Z,10.70
2023-02-13T08:26:31.823Z,11.30
2023-02-13T08:28:59.209Z,10.43
2023-02-13T08:31:27.199Z,11.30
2023-02-13T08:33:55.768Z,11.70
2023-02-13T08:36:23.590Z,10.37
2023-02-13T08:38:50.774Z,9.47
2023-02-13T08:41:19.427Z,9.13
2023-02-13T08:43:46.420Z,10.20
2023-02-13T08:46:13.700Z,9.33
2023-02-13T08:48:40.749Z,9.77
2023-02-13T08:51:09.398Z,8.97
2023-02-13T08:53:37.019Z,9.13
2023-02-13T08:56:05.596Z,8.37
2023-02-13T08:58:32.879Z,8.53
2023-02-13T09:01:00.344Z,7.33
2023-02-13T09:03:27.412Z,8.67
2023-02-13T09:05:58.534Z,6.77
2023-02-13T09:08:25.779Z,8.77
2023-02-13T09:10:58.757Z,7.67
2023-02-13T09:13:25.881Z,7.50
2023-02-13T09:15:53.437Z,8.13
2023-02-13T09:18:20.633Z,7.57
2023-02-13T09:20:47.860Z,8.20
2023-02-13T09:23:14.879Z,8.57
2023-02-13T09:25:42.410Z,8.07
2023-02-13T09:28:09.410Z,7.70
2023-02-13T09:30:36.760Z,9.57
2023-02-13T09:33:03.845Z,9.87
2023-02-13T09:35:31.070Z,8.77
2023-02-13T09:38:00.901Z,9.13
2023-02-13T09:40:55.813Z,8.50
2023-02-13T09:43:37.194Z,9.80
2023-02-13T09:46:25.761Z,9.23
2023-02-13T09:48:56.654Z,8.30
2023-02-13T09:51:25.816Z,8.53
2023-02-13T09:54:00.283Z,9.03
2023-02-13T09:57:02.891Z,8.43
2023-02-13T09:59:42.407Z,8.50
2023-02-13T10:02:51.489Z,8.57
2023-02-13T10:05:38.586Z,8.33
2023-02-13T10:08:24.376Z,9.17
2023-02-13T10:11:03.420Z,8.80
2023-02-13T10:13:40.702Z,8.27
2023-02-13T10:16:37.576Z,8.53
2023-02-13T10:19:14.322Z,8.87
2023-02-13T10:21:53.542Z,8.07
2023-02-13T10:24:48.117Z,6.07
2023-02-13T10:27:28.562Z,6.47
2023-02-13T10:30:13.001Z,9.63
2023-02-13T10:32:49.824Z,9.43
2023-02-13T10:35:22.435Z,9.13
2023-02-13T10:37:53.965Z,10.43
2023-02-13T10:40:24.826Z,10.27
2023-02-13T10:43:07.043Z,10.23
2023-02-13T10:46:04.290Z,9.53
2023-02-13T10:48:43.490Z,9.23
2023-02-13T10:51:28.880Z,9.33
2023-02-13T10:54:22.709Z,10.07
2023-02-13T10:57:21.246Z,10.57
2023-02-13T11:00:10.325Z,9.07
2023-02-13T11:02:38.758Z,10.97
2023-02-13T11:05:17.080Z,11.67
2023-02-13T11:07:48.388Z,11.40
2023-02-13T11:10:21.541Z,10.63
2023-02-13T11:12:49.644Z,11.80
2023-02-13T11:15:27.936Z,11.00
2023-02-13T11:18:03.165Z,10.50
2023-02-13T11:20:41.918Z,12.73
2023-02-13T11:23:35.244Z,11.13
2023-02-13T11:26:04.327Z,10.53
2023-02-13T11:28:37.193Z,11.27
2023-02-13T11:31:26.164Z,10.83
2023-02-13T11:33:53.997Z,10.83
2023-02-13T11:36:25.867Z,9.30
2023-02-13T11:39:17.370Z,9.77
2023-02-13T11:41:46.220Z,10.93
2023-02-13T11:44:27.281Z,9.90
2023-02-13T11:47:00.400Z,10.03
2023-02-13T11:49:34.587Z,10.10
2023-02-13T11:52:11.395Z,10.27
2023-02-13T11:54:45.816Z,10.77
2023-02-13T11:57:22.915Z,13.63
2023-02-13T11:59:52.713Z,11.00
2023-02-13T12:02:21.151Z,11.60
2023-02-13T12:04:54.318Z,11.00
2023-02-13T12:07:30.645Z,13.17
2023-02-13T12:10:11.811Z,11.80
2023-02-13T12:12:45.498Z,10.10
2023-02-13T12:15:19.018Z,12.10
2023-02-13T12:17:50.989Z,12.23
2023-02-13T12:20:18.664Z,11.30
2023-02-13T12:23:14.101Z,10.53
2023-02-13T12:26:08.693Z,12.70
2023-02-13T12:28:53.681Z,11.03
2023-02-13T12:31:27.934Z,10.77
2023-02-13T12:34:03.576Z,12.30
2023-02-13T12:36:50.300Z,10.30
2023-02-13T12:39:40.077Z,10.60
2023-02-13T12:42:32.618Z,11.70
2023-02-13T12:45:27.534Z,10.87
2023-02-13T12:48:04.422Z,10.00
2023-02-13T12:51:07.005Z,10.83
2023-02-13T12:53:47.894Z,11.03
2023-02-13T13:06:03.516Z,10.23
2023-02-13T13:09:01.791Z,9.60
2023-02-13T13:11:41.691Z,11.00
2023-02-13T13:14:32.703Z,17.00
2023-02-13T13:17:40.591Z,9.87
2023-02-13T13:20:23.204Z,11.27
2023-02-13T13:23:05.773Z,10.70
2023-02-13T13:25:41.883Z,11.53
2023-02-13T13:28:22.865Z,10.57
2023-02-13T13:30:51.108Z,9.17
2023-02-13T13:33:41.133Z,10.33
2023-02-13T13:36:34.774Z,10.40
2023-02-13T13:39:46.855Z,9.73
2023-02-13T13:42:31.258Z,10.57
2023-02-13T13:45:24.564Z,10.67
2023-02-13T13:47:54.596Z,9.93
2023-02-13T13:50:40.390Z,10.03
2023-02-13T13:53:23.574Z,10.73
2023-02-13T13:56:08.626Z,10.17
2023-02-13T13:58:51.239Z,9.90
2023-02-13T14:01:33.170Z,10.40
2023-02-13T14:04:34.471Z,11.63
2023-02-13T14:07:22.141Z,11.30
2023-02-13T14:09:49.320Z,10.37
2023-02-13T14:12:31.311Z,10.83
2023-02-13T14:15:34.394Z,11.37
2023-02-13T14:18:22.277Z,11.70
2023-02-13T14:21:05.062Z,11.13
2023-02-13T14:23:53.383Z,10.23
2023-02-13T14:26:37.933Z,10.30
2023-02-13T14:29:10.793Z,11.20
2023-02-13T14:31:43.754Z,11.57
2023-02-13T14:34:11.219Z,10.53
2023-02-13T14:36:46.082Z,10.37
2023-02-13T14:39:30.919Z,11.03
2023-02-13T14:42:27.100Z,10.97
2023-02-13T14:45:17.536Z,10.73
2023-02-13T14:48:06.358Z,9.40
2023-02-13T14:50:52.968Z,10.83
2023-02-13T14:53:51.529Z,8.83
2023-02-13T14:56:23.037Z,9.57
2023-02-13T14:59:09.457Z,9.27
2023-02-13T15:01:46.336Z,9.47
2023-02-13T15:04:20.708Z,8.07
2023-02-13T15:06:49.872Z,8.50
2023-02-13T15:09:39.057Z,8.60
2023-02-13T15:12:26.957Z,8.00
2023-02-13T15:14:53.942Z,8.57
2023-02-13T15:17:40.172Z,9.20
2023-02-13T15:20:18.199Z,8.57
2023-02-13T15:22:47.389Z,8.93
2023-02-13T15:25:36.471Z,8.73
2023-02-13T15:28:06.529Z,9.80
2023-02-13T15:30:36.363Z,9.17
2023-02-13T15:33:21.334Z,9.60
2023-02-13T15:36:00.031Z,10.03
2023-02-13T15:38:34.717Z,9.80
2023-02-13T15:41:10.269Z,9.73
2023-02-13T15:43:47.494Z,8.90
2023-02-13T15:46:25.329Z,10.57
2023-02-13T15:49:14.072Z,10.00
2023-02-13T15:51:41.656Z,10.07
2023-02-13T15:54:24.868Z,10.60
2023-02-13T15:56:55.088Z,9.83
2023-02-13T15:59:23.116Z,9.30
2023-02-13T16:01:52.081Z,10.17
2023-02-13T16:04:20.683Z,10.40
2023-02-13T16:06:49.038Z,9.93
2023-02-13T16:09:27.408Z,9.50
2023-02-13T16:12:28.188Z,10.20
2023-02-13T16:15:06.072Z,10.63
2023-02-13T16:17:38.371Z,9.40
2023-02-13T16:20:13.021Z,10.93
2023-02-13T16:22:56.343Z,9.90
2023-02-13T16:25:33.878Z,10.20
2023-02-13T16:28:22.866Z,9.70
2023-02-13T16:30:59.467Z,9.87
2023-02-13T16:33:35.793Z,9.80
2023-02-13T16:36:11.650Z,9.17
2023-02-13T16:38:42.777Z,9.20
2023-02-13T16:41:19.236Z,9.43
2023-02-13T16:44:00.579Z,9.53
2023-02-13T16:46:41.209Z,9.33
2023-02-13T16:49:08.437Z,9.87
2023-02-13T16:51:42.957Z,10.07
2023-02-13T16:54:22.662Z,9.77
2023-02-13T16:56:52.193Z,9.20
2023-02-13T16:59:24.491Z,9.00
2023-02-13T17:02:16.252Z,10.27
2023-02-13T17:05:16.806Z,8.93
2023-02-13T17:07:48.605Z,8.73
2023-02-13T17:10:23.396Z,10.20
2023-02-13T17:12:51.419Z,9.87
2023-02-13T17:15:21.559Z,8.80
2023-02-13T17:17:53.872Z,9.60
2023-02-13T17:20:24.166Z,9.10
2023-02-13T17:22:53.814Z,9.13
2023-02-13T17:25:28.849Z,9.27
2023-02-13T17:27:58.540Z,8.87
2023-02-13T17:30:31.986Z,9.03
2023-02-13T17:33:02.727Z,9.30
2023-02-13T17:35:30.317Z,9.63
2023-02-13T17:37:57.632Z,8.30
2023-02-13T17:40:27.623Z,8.63
2023-02-13T17:42:55.387Z,8.80
2023-02-13T17:45:26.874Z,8.17
2023-02-13T17:47:54.093Z,8.47
2023-02-13T17:50:21.783Z,9.67
2023-02-13T17:52:49.759Z,8.63
2023-02-13T17:55:21.779Z,8.40
2023-02-13T17:57:49.491Z,9.13
2023-02-13T18:00:18.451Z,8.10
2023-02-13T18:02:45.600Z,8.40
2023-02-13T18:05:12.918Z,9.23
2023-02-13T18:07:41.498Z,7.07
2023-02-13T18:10:13.977Z,6.40
2023-02-13T18:12:41.343Z,5.37
2023-02-13T18:15:09.321Z,6.43
2023-02-13T18:17:36.809Z,6.63
2023-02-13T18:20:05.813Z,5.90
2023-02-13T18:22:32.881Z,6.27
2023-02-13T18:25:01.583Z,6.03
2023-02-13T18:27:29.136Z,5.40
2023-02-13T18:29:56.745Z,6.23
2023-02-13T18:32:24.332Z,5.53
2023-02-13T18:34:52.113Z,5.63
2023-02-13T18:37:19.911Z,5.20
2023-02-13T18:39:47.148Z,5.17
2023-02-13T18:42:14.171Z,5.93
2023-02-13T18:44:41.960Z,4.63
2023-02-13T18:47:09.099Z,5.37
2023-02-13T18:49:36.302Z,6.73
2023-02-13T18:52:03.958Z,5.10
2023-02-13T18:54:31.290Z,5.10
2023-02-13T18:56:58.415Z,5.20
2023-02-13T18:59:25.885Z,5.30
2023-02-13T19:01:52.929Z,5.27
2023-02-13T19:04:20.192Z,4.90
2023-02-13T19:06:47.195Z,5.03
2023-02-13T19:09:14.399Z,4.83
2023-02-13T19:11:42.801Z,8.20
2023-02-13T19:14:13.801Z,8.33
2023-02-13T19:16:41.506Z,8.67
2023-02-13T19:19:09.179Z,8.23
2023-02-13T19:21:38.224Z,8.70
2023-02-13T19:24:08.669Z,8.20
2023-02-13T19:26:35.846Z,8.83
2023-02-13T19:29:04.054Z,7.90
2023-02-13T19:31:32.598Z,8.23
2023-02-13T19:34:05.681Z,8.60
2023-02-13T19:36:33.050Z,8.83
2023-02-13T19:39:06.514Z,10.90
2023-02-13T19:41:33.560Z,11.13
2023-02-13T19:44:01.219Z,9.77
2023-02-13T19:46:31.005Z,7.23
2023-02-13T19:48:59.278Z,8.20
2023-02-13T19:51:29.500Z,9.00
2023-02-13T19:54:01.671Z,7.97
2023-02-13T19:56:29.786Z,7.80
2023-02-13T19:58:57.372Z,9.00
2023-02-13T20:01:26.272Z,7.93
2023-02-13T20:03:54.083Z,8.33
2023-02-13T20:06:24.773Z,8.33
2023-02-13T20:08:52.834Z,7.93
2023-02-13T20:11:21.706Z,7.77
2023-02-13T20:13:52.649Z,7.50
2023-02-13T20:16:19.664Z,9.20
2023-02-13T20:18:46.935Z,8.13
2023-02-13T20:21:16.598Z,6.83
2023-02-13T20:23:48.829Z,7.43
2023-02-13T20:26:16.813Z,6.80
2023-02-13T20:28:46.123Z,8.93
2023-02-13T20:31:16.080Z,9.37
2023-02-13T20:33:44.307Z,8.60
2023-02-13T20:36:22.785Z,7.67
2023-02-13T20:38:52.976Z,8.77
2023-02-13T20:41:22.393Z,9.50
2023-02-13T20:43:50.132Z,10.90
2023-02-13T20:46:18.574Z,9.53
2023-02-13T20:48:47.436Z,11.70
2023-02-13T20:51:16.654Z,11.47
2023-02-13T20:53:45.487Z,11.67
2023-02-13T20:56:17.411Z,10.30
2023-02-13T20:58:47.134Z,10.13
2023-02-13T21:01:19.317Z,7.17
2023-02-13T21:03:53.447Z,7.90
2023-02-13T21:06:27.370Z,7.90
2023-02-13T21:08:54.953Z,8.43
2023-02-13T21:11:22.581Z,8.13
2023-02-13T21:13:50.468Z,7.87
2023-02-13T21:16:20.439Z,8.43
2023-02-13T21:18:50.039Z,7.93
2023-02-13T21:21:18.138Z,8.83
2023-02-13T21:23:45.492Z,8.13
2023-02-13T21:26:15.391Z,9.40
2023-02-13T21:28:46.101Z,10.10
2023-02-13T21:31:19.746Z,8.70
2023-02-13T21:33:47.126Z,8.77
2023-02-13T21:36:14.698Z,7.43
2023-02-13T21:38:42.308Z,8.30
2023-02-13T21:41:11.476Z,7.77
2023-02-13T21:43:39.156Z,8.33
2023-02-13T21:46:21.000Z,8.67
2023-02-13T21:48:53.552Z,7.70
2023-02-13T21:51:21.551Z,8.03
2023-02-13T21:53:49.727Z,7.57
2023-02-13T21:56:19.063Z,7.50
2023-02-13T21:58:47.071Z,8.53
2023-02-13T22:01:26.976Z,8.20
2023-02-13T22:03:59.158Z,8.30
2023-02-13T22:06:29.486Z,8.17
2023-02-13T22:09:04.129Z,8.20
2023-02-13T22:11:31.606Z,7.90
2023-02-13T22:14:04.220Z,8.40
2023-02-13T22:16:33.550Z,9.20
2023-02-13T22:19:01.697Z,8.47
2023-02-13T22:21:30.598Z,8.67
2023-02-13T22:23:58.095Z,8.90
2023-02-13T22:26:28.770Z,7.70
2023-02-13T22:28:59.367Z,8.97
2023-02-13T22:31:26.513Z,8.47
2023-02-13T22:34:03.503Z,7.90
2023-02-13T22:36:40.506Z,8.37
2023-02-13T22:39:09.748Z,8.03
2023-02-13T22:41:36.811Z,7.77
2023-02-13T22:44:04.223Z,8.67
2023-02-13T22:46:33.336Z,9.37
2023-02-13T22:49:01.009Z,9.43
2023-02-13T22:51:31.914Z,9.00
2023-02-13T22:54:00.137Z,8.93
2023-02-13T22:56:28.772Z,9.37
2023-02-13T22:58:56.436Z,8.23
2023-02-13T23:01:25.339Z,8.17
2023-02-13T23:03:52.937Z,7.73
2023-02-13T23:06:20.050Z,8.53
2023-02-13T23:08:52.326Z,11.90
2023-02-13T23:11:40.341Z,11.57
2023-02-13T23:14:07.865Z,11.07
2023-02-13T23:16:53.643Z,9.30
2023-02-13T23:19:21.536Z,8.50
2023-02-13T23:21:48.619Z,8.80
2023-02-13T23:24:16.024Z,9.33
2023-02-13T23:26:43.392Z,8.50
2023-02-13T23:29:10.823Z,9.00
2023-02-13T23:31:38.088Z,9.23
2023-02-13T23:34:05.350Z,8.40
2023-02-13T23:36:32.357Z,8.87
2023-02-13T23:38:59.593Z,8.93
2023-02-13T23:41:26.534Z,8.53
2023-02-13T23:43:53.894Z,8.47
2023-02-13T23:46:20.852Z,8.53
2023-02-13T23:48:48.144Z,8.47
2023-02-13T23:51:15.156Z,8.70
2023-02-13T23:53:42.394Z,8.10
2023-02-13T23:56:09.537Z,8.47
2023-02-13T23:58:36.850Z,8.43
